createdAt,value
2022-12-14T00:00:46.786Z,83.43
2022-12-14T00:03:24.237Z,83.63
2022-12-14T00:05:56.507Z,83.40
2022-12-14T00:08:30.107Z,83.14
2022-12-14T00:11:03.416Z,82.57
2022-12-14T00:13:37.770Z,82.28
2022-12-14T00:16:13.251Z,82.12
2022-12-14T00:18:48.939Z,81.74
2022-12-14T00:27:21.355Z,82.62
2022-12-14T00:33:14.171Z,82.72
2022-12-14T00:35:54.210Z,82.74
2022-12-14T00:38:33.730Z,82.58
2022-12-14T00:41:07.405Z,82.40
2022-12-14T00:43:40.633Z,82.68
2022-12-14T00:46:13.983Z,82.26
2022-12-14T00:48:47.810Z,81.44
2022-12-14T00:51:25.447Z,81.07
2022-12-14T00:53:58.811Z,81.23
2022-12-14T00:56:32.332Z,81.47
2022-12-14T00:59:05.556Z,81.79
2022-12-14T01:01:39.479Z,81.33
2022-12-14T01:04:21.690Z,80.91
2022-12-14T01:06:57.625Z,80.97
2022-12-14T01:09:31.173Z,81.39
2022-12-14T01:12:04.363Z,81.74
2022-12-14T01:14:37.835Z,81.59
2022-12-14T01:17:11.089Z,81.66
2022-12-14T01:19:44.559Z,81.68
2022-12-14T01:22:19.483Z,81.69
2022-12-14T01:24:52.862Z,82.07
2022-12-14T01:27:29.083Z,82.42
2022-12-14T01:30:02.378Z,82.52
2022-12-14T01:32:37.998Z,82.43
2022-12-14T01:35:11.998Z,82.41
2022-12-14T01:37:49.155Z,82.56
2022-12-14T01:40:26.274Z,82.62
2022-12-14T01:43:01.557Z,82.60
2022-12-14T01:45:37.149Z,82.47
2022-12-14T01:48:14.602Z,81.87
2022-12-14T01:50:48.781Z,82.00
2022-12-14T01:56:08.243Z,81.11
2022-12-14T01:58:41.718Z,81.20
2022-12-14T02:01:16.772Z,80.85
2022-12-14T02:03:53.130Z,80.67
2022-12-14T02:06:30.740Z,80.95
2022-12-14T02:09:04.294Z,81.19
2022-12-14T02:11:40.814Z,81.28
2022-12-14T02:14:13.948Z,81.28
2022-12-14T02:16:47.560Z,81.37
2022-12-14T02:19:21.335Z,81.59
2022-12-14T02:22:10.397Z,81.69
2022-12-14T02:28:02.380Z,81.87
2022-12-14T02:30:38.538Z,81.68
2022-12-14T02:33:18.345Z,81.79
2022-12-14T02:35:57.904Z,81.85
2022-12-14T02:38:40.830Z,81.85
2022-12-14T02:41:17.552Z,81.87
2022-12-14T02:43:56.697Z,81.96
2022-12-14T02:46:33.348Z,81.76
2022-12-14T02:49:09.858Z,81.84
2022-12-14T02:51:48.897Z,81.38
2022-12-14T02:54:27.849Z,81.21
2022-12-14T02:57:05.218Z,81.44
2022-12-14T02:59:39.017Z,81.17
2022-12-14T03:02:14.873Z,81.34
2022-12-14T03:04:51.677Z,81.46
2022-12-14T03:07:39.492Z,81.00
2022-12-14T03:10:20.888Z,80.83
2022-12-14T03:12:57.839Z,81.17
2022-12-14T03:15:34.469Z,81.45
2022-12-14T03:20:56.847Z,81.97
2022-12-14T03:23:32.989Z,82.05
2022-12-14T03:26:10.479Z,81.97
2022-12-14T03:28:49.327Z,81.54
2022-12-14T03:31:42.643Z,81.42
2022-12-14T03:34:27.228Z,81.59
2022-12-14T03:37:03.250Z,81.53
2022-12-14T03:39:38.749Z,81.46
2022-12-14T03:42:15.765Z,81.47
2022-12-14T03:44:52.560Z,81.56
2022-12-14T03:47:36.403Z,81.64
2022-12-14T03:50:12.708Z,81.60
2022-12-14T03:52:51.780Z,81.61
2022-12-14T03:55:31.657Z,81.73
2022-12-14T03:58:39.527Z,81.78
2022-12-14T04:01:16.709Z,81.91
2022-12-14T04:03:56.029Z,81.80
2022-12-14T04:06:42.649Z,81.84
2022-12-14T04:09:30.864Z,81.83
2022-12-14T04:12:26.795Z,81.54
2022-12-14T04:15:26.396Z,81.63
2022-12-14T04:18:38.634Z,81.45
2022-12-14T04:24:21.709Z,81.32
2022-12-14T04:26:58.490Z,81.25
2022-12-14T04:29:54.238Z,81.24
2022-12-14T04:32:48.582Z,81.27
2022-12-14T04:35:24.836Z,81.11
2022-12-14T04:38:01.704Z,80.69
2022-12-14T04:40:46.547Z,80.92
2022-12-14T04:51:19.348Z,81.21
2022-12-14T04:53:59.987Z,81.23
2022-12-14T04:56:35.974Z,80.96
2022-12-14T04:59:12.443Z,80.79
2022-12-14T05:01:52.180Z,80.71
2022-12-14T05:05:01.231Z,80.79
2022-12-14T05:07:48.971Z,80.88
2022-12-14T05:10:29.743Z,80.79
2022-12-14T05:13:16.378Z,80.99
2022-12-14T05:15:53.964Z,81.16
2022-12-14T05:18:27.304Z,81.19
2022-12-14T05:21:00.194Z,81.21
2022-12-14T05:23:33.049Z,81.02
2022-12-14T05:26:06.188Z,80.95
2022-12-14T05:28:39.053Z,80.82
2022-12-14T05:31:12.194Z,80.64
2022-12-14T05:33:45.147Z,80.63
2022-12-14T05:36:19.799Z,80.74
2022-12-14T05:38:52.557Z,80.84
2022-12-14T05:41:25.440Z,80.96
2022-12-14T05:43:58.356Z,81.06
2022-12-14T05:46:31.310Z,81.10
2022-12-14T05:49:04.470Z,81.16
2022-12-14T05:51:37.274Z,81.07
2022-12-14T05:54:10.137Z,80.94
2022-12-14T05:56:46.914Z,80.88
2022-12-14T05:59:20.926Z,80.89
2022-12-14T06:02:05.862Z,81.00
2022-12-14T06:04:39.980Z,81.02
2022-12-14T06:07:15.363Z,80.99
2022-12-14T06:09:48.716Z,80.85
2022-12-14T06:12:21.600Z,80.79
2022-12-14T06:14:54.493Z,80.89
2022-12-14T06:17:27.598Z,80.96
2022-12-14T06:20:00.752Z,80.93
2022-12-14T06:22:34.105Z,81.00
2022-12-14T06:25:07.989Z,80.96
2022-12-14T06:27:40.909Z,80.87
2022-12-14T06:30:16.400Z,80.78
2022-12-14T06:32:49.211Z,80.79
2022-12-14T06:35:22.270Z,80.77
2022-12-14T06:37:55.218Z,80.70
2022-12-14T06:40:31.083Z,80.71
2022-12-14T06:43:04.375Z,80.63
2022-12-14T06:45:37.528Z,80.58
2022-12-14T06:48:10.418Z,80.49
2022-12-14T06:50:43.383Z,80.61
2022-12-14T06:53:16.390Z,80.49
2022-12-14T06:55:49.393Z,80.57
2022-12-14T06:58:22.377Z,80.47
2022-12-14T07:00:55.280Z,80.54
2022-12-14T07:03:28.500Z,80.57
2022-12-14T07:06:02.888Z,80.48
2022-12-14T07:08:39.039Z,80.65
2022-12-14T07:11:14.724Z,80.63
2022-12-14T07:13:48.844Z,80.70
2022-12-14T07:16:24.037Z,80.72
2022-12-14T07:18:57.907Z,80.79
2022-12-14T07:21:30.796Z,80.80
2022-12-14T07:24:03.948Z,80.77
2022-12-14T07:26:38.013Z,80.72
2022-12-14T07:29:12.204Z,80.64
2022-12-14T07:31:49.458Z,80.63
2022-12-14T07:34:20.112Z,80.60
2022-12-14T07:36:54.117Z,80.54
2022-12-14T07:39:28.382Z,80.54
2022-12-14T07:42:01.238Z,80.41
2022-12-14T07:44:35.114Z,80.39
2022-12-14T07:47:11.435Z,80.37
2022-12-14T07:49:43.495Z,80.33
2022-12-14T07:52:16.956Z,80.19
2022-12-14T07:54:49.918Z,80.07
2022-12-14T08:00:05.786Z,80.07
2022-12-14T08:02:40.360Z,79.98
2022-12-14T08:05:13.644Z,79.81
2022-12-14T08:07:46.574Z,79.85
2022-12-14T08:10:19.727Z,79.95
2022-12-14T08:12:53.378Z,80.07
2022-12-14T08:15:26.334Z,79.91
2022-12-14T08:17:59.273Z,79.75
2022-12-14T08:20:32.403Z,79.77
2022-12-14T08:25:40.119Z,79.70
2022-12-14T08:28:13.130Z,79.51
2022-12-14T08:30:46.047Z,79.82
2022-12-14T08:33:19.222Z,79.88
2022-12-14T08:38:35.017Z,79.60
2022-12-14T08:41:09.940Z,79.58
2022-12-14T08:43:43.848Z,79.49
2022-12-14T08:46:16.925Z,79.44
2022-12-14T08:48:52.490Z,79.44
2022-12-14T08:51:27.030Z,79.60
2022-12-14T08:53:59.919Z,79.50
2022-12-14T08:56:33.117Z,79.42
2022-12-14T08:59:07.735Z,79.36
2022-12-14T09:01:40.871Z,79.23
2022-12-14T09:04:13.912Z,79.07
2022-12-14T09:06:46.836Z,79.00
2022-12-14T09:09:19.744Z,78.90
2022-12-14T09:11:52.707Z,78.72
2022-12-14T09:14:25.783Z,78.25
2022-12-14T09:16:59.138Z,78.29
2022-12-14T09:19:32.440Z,78.23
2022-12-14T09:22:18.643Z,78.19
2022-12-14T09:24:53.572Z,78.17
2022-12-14T09:27:27.539Z,78.35
2022-12-14T09:30:00.692Z,78.67
2022-12-14T09:32:50.614Z,78.70
2022-12-14T09:35:23.023Z,78.77
2022-12-14T09:37:55.917Z,78.77
2022-12-14T09:40:32.153Z,78.65
2022-12-14T09:43:09.600Z,78.49
2022-12-14T09:45:45.451Z,78.22
2022-12-14T09:48:22.455Z,78.07
2022-12-14T09:50:56.927Z,78.00
2022-12-14T09:53:30.646Z,77.83
2022-12-14T09:56:04.445Z,77.94
2022-12-14T09:58:39.338Z,77.91
2022-12-14T10:01:18.695Z,77.95
2022-12-14T10:03:56.173Z,77.83
2022-12-14T10:06:31.655Z,77.95
2022-12-14T10:09:09.842Z,78.26
2022-12-14T10:11:47.009Z,78.37
2022-12-14T10:14:25.941Z,78.24
2022-12-14T10:17:02.134Z,78.10
2022-12-14T10:19:40.726Z,78.12
2022-12-14T10:22:17.154Z,78.02
2022-12-14T10:24:55.327Z,78.10
2022-12-14T10:27:47.701Z,77.93
2022-12-14T10:30:08.852Z,77.94
2022-12-14T10:32:45.326Z,78.09
2022-12-14T10:35:21.136Z,78.12
2022-12-14T10:37:57.868Z,77.84
2022-12-14T10:40:35.690Z,77.76
2022-12-14T10:43:16.421Z,77.86
2022-12-14T10:45:52.850Z,77.73
2022-12-14T10:48:45.308Z,77.75
2022-12-14T10:51:22.521Z,77.77
2022-12-14T10:53:58.567Z,77.62
2022-12-14T10:56:34.236Z,77.67
2022-12-14T10:59:35.083Z,77.76
2022-12-14T11:02:08.295Z,77.76
2022-12-14T11:04:45.628Z,77.85
2022-12-14T11:07:20.760Z,78.10
2022-12-14T11:09:54.122Z,77.97
2022-12-14T11:12:28.855Z,77.86
2022-12-14T11:15:04.105Z,77.93
2022-12-14T11:17:40.520Z,77.73
2022-12-14T11:20:26.443Z,77.64
2022-12-14T11:23:01.844Z,77.15
2022-12-14T11:25:41.935Z,76.56
2022-12-14T11:28:31.275Z,76.51
2022-12-14T11:31:05.283Z,76.51
2022-12-14T11:33:41.607Z,75.92
2022-12-14T11:36:25.648Z,75.92
2022-12-14T11:39:00.126Z,76.08
2022-12-14T11:44:26.946Z,76.50
2022-12-14T11:47:05.236Z,76.62
2022-12-14T11:49:45.691Z,76.71
2022-12-14T11:52:20.799Z,76.49
2022-12-14T11:55:12.466Z,76.40
2022-12-14T11:57:50.475Z,76.41
2022-12-14T12:00:29.340Z,75.79
2022-12-14T12:03:06.751Z,75.74
2022-12-14T12:05:45.073Z,75.88
2022-12-14T12:08:25.365Z,75.92
2022-12-14T12:11:02.282Z,75.86
2022-12-14T12:13:39.209Z,75.53
2022-12-14T12:16:18.657Z,75.47
2022-12-14T12:18:54.529Z,75.60
2022-12-14T12:21:31.851Z,75.48
2022-12-14T12:24:08.589Z,75.58
2022-12-14T12:26:49.876Z,75.63
2022-12-14T12:29:23.497Z,75.37
2022-12-14T12:32:00.375Z,75.33
2022-12-14T12:34:36.485Z,75.39
2022-12-14T12:37:28.050Z,75.38
2022-12-14T12:42:35.914Z,75.78
2022-12-14T12:45:14.043Z,75.98
2022-12-14T12:47:50.425Z,75.97
2022-12-14T12:50:26.055Z,76.31
2022-12-14T12:53:03.956Z,76.34
2022-12-14T12:55:39.608Z,76.44
2022-12-14T12:58:16.934Z,76.58
2022-12-14T13:00:55.684Z,76.77
2022-12-14T13:03:32.557Z,76.81
2022-12-14T13:06:10.233Z,76.90
2022-12-14T13:08:45.193Z,77.07
2022-12-14T13:11:27.013Z,77.20
2022-12-14T13:14:00.660Z,77.21
2022-12-14T13:16:36.407Z,77.31
2022-12-14T13:19:48.137Z,77.37
2022-12-14T13:21:51.325Z,77.35
2022-12-14T13:24:25.168Z,77.45
2022-12-14T13:27:29.536Z,77.39
2022-12-14T13:30:16.479Z,77.55
2022-12-14T13:32:57.379Z,77.67
2022-12-14T13:38:35.775Z,77.80
2022-12-14T13:41:17.567Z,77.77
2022-12-14T13:44:04.930Z,77.87
2022-12-14T13:46:38.222Z,77.87
2022-12-14T13:49:17.952Z,77.93
2022-12-14T13:51:52.976Z,77.98
2022-12-14T13:54:31.291Z,77.92
2022-12-14T13:57:08.046Z,78.00
2022-12-14T13:59:43.482Z,78.08
2022-12-14T14:02:42.282Z,77.95
2022-12-14T14:05:41.109Z,77.94
2022-12-14T14:08:36.052Z,77.96
2022-12-14T14:11:41.308Z,77.87
2022-12-14T14:14:23.094Z,77.77
2022-12-14T14:17:00.747Z,77.75
2022-12-14T14:19:33.893Z,77.68
2022-12-14T14:22:23.446Z,77.69
2022-12-14T14:24:59.402Z,77.66
2022-12-14T14:27:39.706Z,77.70
2022-12-14T14:30:28.947Z,77.63
2022-12-14T14:33:36.311Z,77.53
2022-12-14T14:35:39.067Z,77.46
2022-12-14T14:38:22.548Z,77.50
2022-12-14T14:41:16.196Z,77.50
2022-12-14T14:43:35.934Z,77.63
2022-12-14T14:46:13.597Z,77.67
2022-12-14T14:48:53.477Z,77.59
2022-12-14T14:51:31.278Z,77.64
2022-12-14T14:55:11.026Z,77.64
2022-12-14T14:57:07.705Z,77.69
2022-12-14T14:59:51.101Z,77.66
2022-12-14T15:02:31.489Z,77.76
2022-12-14T15:07:43.665Z,77.94
2022-12-14T15:10:22.861Z,77.87
2022-12-14T15:13:08.799Z,77.84
2022-12-14T15:18:27.458Z,77.92
2022-12-14T15:21:04.306Z,77.98
2022-12-14T15:23:40.214Z,77.93
2022-12-14T15:26:17.584Z,78.06
2022-12-14T15:28:52.946Z,78.03
2022-12-14T15:31:32.980Z,78.01
2022-12-14T15:34:06.110Z,78.03
2022-12-14T15:36:42.228Z,78.06
2022-12-14T15:39:33.888Z,77.95
2022-12-14T15:42:12.395Z,78.11
2022-12-14T15:44:53.018Z,78.06
2022-12-14T15:47:29.472Z,78.09
2022-12-14T15:50:19.736Z,78.12
2022-12-14T15:55:41.810Z,78.19
2022-12-14T15:58:18.868Z,79.30
2022-12-14T16:00:54.183Z,78.87
2022-12-14T16:03:31.177Z,78.51
2022-12-14T16:06:06.062Z,78.34
2022-12-14T16:08:41.309Z,78.19
2022-12-14T16:17:08.046Z,77.90
2022-12-14T16:19:58.497Z,77.87
2022-12-14T16:22:25.506Z,77.79
2022-12-14T16:25:17.144Z,77.75
2022-12-14T16:27:52.204Z,77.84
2022-12-14T16:30:31.760Z,77.82
2022-12-14T16:33:15.200Z,77.85
2022-12-14T16:35:51.540Z,77.86
2022-12-14T16:38:25.595Z,77.90
2022-12-14T16:41:01.172Z,77.84
2022-12-14T16:43:37.270Z,77.93
2022-12-14T16:46:18.832Z,77.88
2022-12-14T16:49:20.875Z,77.97
2022-12-14T16:52:07.711Z,77.98
2022-12-14T16:54:38.671Z,78.01
2022-12-14T16:57:23.411Z,78.09
2022-12-14T17:00:00.757Z,78.08
2022-12-14T17:02:38.511Z,78.06
2022-12-14T17:05:17.818Z,78.02
2022-12-14T17:07:51.348Z,77.98
2022-12-14T17:10:26.974Z,77.96
2022-12-14T17:13:01.787Z,77.94
2022-12-14T17:15:36.585Z,77.98
2022-12-14T17:18:11.296Z,77.99
2022-12-14T17:20:44.161Z,78.04
2022-12-14T17:23:19.273Z,78.04
2022-12-14T17:25:52.278Z,77.87
2022-12-14T17:28:28.967Z,77.82
2022-12-14T17:31:03.763Z,77.76
2022-12-14T17:33:38.361Z,77.76
2022-12-14T17:36:11.665Z,77.79
2022-12-14T17:38:44.835Z,77.68
2022-12-14T17:41:21.314Z,77.47
2022-12-14T17:43:57.258Z,77.37
2022-12-14T17:46:30.769Z,77.36
2022-12-14T17:49:06.607Z,77.48
2022-12-14T17:51:42.284Z,77.49
2022-12-14T17:54:22.439Z,77.33
2022-12-14T17:56:54.259Z,77.55
2022-12-14T17:59:28.168Z,77.50
2022-12-14T18:02:01.215Z,77.39
2022-12-14T18:07:49.703Z,77.12
2022-12-14T18:16:17.249Z,76.56
2022-12-14T18:18:50.213Z,76.44
2022-12-14T18:21:26.411Z,76.48
2022-12-14T18:24:56.104Z,76.21
2022-12-14T18:28:08.265Z,76.12
2022-12-14T18:30:49.851Z,76.36
2022-12-14T18:33:25.419Z,76.39
2022-12-14T18:35:59.462Z,76.43
2022-12-14T18:38:32.826Z,76.63
2022-12-14T18:41:06.585Z,76.46
2022-12-14T18:43:44.132Z,76.58
2022-12-14T18:46:17.711Z,76.73
2022-12-14T18:48:51.307Z,76.82
2022-12-14T18:51:26.999Z,76.87
2022-12-14T18:54:02.369Z,76.93
2022-12-14T18:56:35.296Z,76.93
2022-12-14T18:59:08.303Z,76.89
2022-12-14T19:01:42.464Z,76.80
2022-12-14T19:04:15.717Z,76.73
2022-12-14T19:06:53.786Z,76.78
2022-12-14T19:09:26.771Z,76.76
2022-12-14T19:11:59.827Z,76.84
2022-12-14T19:14:33.708Z,76.78
2022-12-14T19:17:08.378Z,76.80
2022-12-14T19:19:44.662Z,76.82
2022-12-14T19:22:18.019Z,76.72
2022-12-14T19:24:52.668Z,76.62
2022-12-14T19:27:58.912Z,76.74
2022-12-14T19:30:02.248Z,76.85
2022-12-14T19:32:41.325Z,76.81
2022-12-14T19:35:22.084Z,76.91
2022-12-14T19:37:56.677Z,76.87
2022-12-14T19:40:30.775Z,76.99
2022-12-14T19:43:06.021Z,76.92
2022-12-14T19:45:41.294Z,77.02
2022-12-14T19:48:20.539Z,76.98
2022-12-14T19:50:53.810Z,77.08
2022-12-14T19:53:36.583Z,77.02
2022-12-14T19:56:13.601Z,76.96
2022-12-14T19:58:47.803Z,77.03
2022-12-14T20:01:23.146Z,77.00
2022-12-14T20:03:56.431Z,76.92
2022-12-14T20:06:31.827Z,76.91
2022-12-14T20:09:07.102Z,76.87
2022-12-14T20:11:42.629Z,76.88
2022-12-14T20:14:16.324Z,76.78
2022-12-14T20:16:52.240Z,76.79
2022-12-14T20:19:25.701Z,76.74
2022-12-14T20:22:00.203Z,76.65
2022-12-14T20:24:33.087Z,76.72
2022-12-14T20:27:06.087Z,76.80
2022-12-14T20:29:49.058Z,76.81
2022-12-14T20:32:21.887Z,76.71
2022-12-14T20:34:54.759Z,76.75
2022-12-14T20:37:27.754Z,76.65
2022-12-14T20:40:03.319Z,76.62
2022-12-14T20:42:36.320Z,76.70
2022-12-14T20:45:10.996Z,76.66
2022-12-14T20:47:46.961Z,76.76
2022-12-14T20:50:20.019Z,76.67
2022-12-14T20:52:52.880Z,76.62
2022-12-14T20:55:25.734Z,76.72
2022-12-14T20:57:58.827Z,76.70
2022-12-14T21:00:31.819Z,76.76
2022-12-14T21:03:05.285Z,76.79
2022-12-14T21:05:42.787Z,76.80
2022-12-14T21:08:16.358Z,76.99
2022-12-14T21:10:49.251Z,77.01
2022-12-14T21:13:22.188Z,77.12
2022-12-14T21:15:55.162Z,77.16
2022-12-14T21:18:28.067Z,77.15
2022-12-14T21:21:04.359Z,77.15
2022-12-14T21:23:37.482Z,77.13
2022-12-14T21:26:10.659Z,77.20
2022-12-14T21:28:43.578Z,77.25
2022-12-14T21:31:16.792Z,77.26
2022-12-14T21:33:51.475Z,77.33
2022-12-14T21:36:24.310Z,77.37
2022-12-14T21:38:59.973Z,77.41
2022-12-14T21:41:50.982Z,77.44
2022-12-14T21:44:23.894Z,77.53
2022-12-14T21:46:56.847Z,77.56
2022-12-14T21:49:29.987Z,77.70
2022-12-14T21:52:07.206Z,77.71
2022-12-14T21:54:40.303Z,77.72
2022-12-14T21:57:34.133Z,77.72
2022-12-14T22:00:10.005Z,77.69
2022-12-14T22:02:45.809Z,77.72
2022-12-14T22:05:19.189Z,77.75
2022-12-14T22:07:52.737Z,77.79
2022-12-14T22:10:25.623Z,77.76
2022-12-14T22:12:58.569Z,77.77
2022-12-14T22:15:31.617Z,77.80
2022-12-14T22:18:04.672Z,77.81
2022-12-14T22:20:37.557Z,77.84
2022-12-14T22:23:10.472Z,77.86
2022-12-14T22:25:50.758Z,77.84
2022-12-14T22:28:23.627Z,77.84
2022-12-14T22:30:56.484Z,77.84
2022-12-14T22:33:30.649Z,77.86
2022-12-14T22:36:03.844Z,77.82
2022-12-14T22:38:36.701Z,77.78
2022-12-14T22:41:10.370Z,77.66
2022-12-14T22:43:44.461Z,77.43
2022-12-14T22:46:18.032Z,77.33
2022-12-14T22:48:50.931Z,77.27
2022-12-14T22:51:25.444Z,77.28
2022-12-14T22:53:59.465Z,77.11
2022-12-14T22:56:35.923Z,77.07
2022-12-14T22:59:11.961Z,76.89
2022-12-14T23:01:50.153Z,76.86
2022-12-14T23:04:21.096Z,76.75
2022-12-14T23:06:55.349Z,76.91
2022-12-14T23:09:46.094Z,77.04
2022-12-14T23:12:36.565Z,76.92
2022-12-14T23:15:28.493Z,76.94
2022-12-14T23:18:22.566Z,76.93
2022-12-14T23:21:13.739Z,76.92
2022-12-14T23:24:05.278Z,76.86
2022-12-14T23:26:56.138Z,76.94
2022-12-14T23:29:47.480Z,76.97
2022-12-14T23:32:38.015Z,77.04
2022-12-14T23:35:29.193Z,77.08
2022-12-14T23:38:24.936Z,77.08
2022-12-14T23:41:19.539Z,77.05
2022-12-14T23:44:10.151Z,77.17
2022-12-14T23:47:00.949Z,77.23
2022-12-14T23:49:51.371Z,77.31
2022-12-14T23:52:41.865Z,77.33
2022-12-14T23:55:48.290Z,77.54
2022-12-14T23:58:43.616Z,77.60
